createdAt,value
2022-10-30T00:00:48.424Z,6.30
2022-10-30T00:03:17.835Z,6.07
2022-10-30T00:05:49.582Z,6.43
2022-10-30T00:08:21.080Z,6.43
2022-10-30T00:10:52.309Z,6.40
2022-10-30T00:13:22.124Z,6.20
2022-10-30T00:15:53.012Z,6.40
2022-10-30T00:18:21.640Z,6.22
2022-10-30T00:20:49.694Z,6.63
2022-10-30T00:23:17.598Z,6.93
2022-10-30T00:25:45.296Z,6.70
2022-10-30T00:28:13.459Z,5.88
2022-10-30T00:30:42.550Z,6.15
2022-10-30T00:33:10.421Z,6.50
2022-10-30T00:35:38.224Z,6.18
2022-10-30T00:38:06.135Z,6.28
2022-10-30T00:40:34.402Z,6.43
2022-10-30T00:43:02.231Z,6.80
2022-10-30T00:45:30.097Z,6.47
2022-10-30T00:48:03.863Z,6.55
2022-10-30T00:50:37.660Z,6.95
2022-10-30T00:53:11.735Z,7.15
2022-10-30T00:55:45.939Z,6.95
2022-10-30T00:58:21.189Z,7.20
2022-10-30T01:00:54.859Z,6.90
2022-10-30T01:03:27.518Z,6.78
2022-10-30T01:06:02.676Z,6.75
2022-10-30T01:08:31.453Z,7.50
2022-10-30T01:11:02.988Z,6.30
2022-10-30T01:13:34.356Z,7.18
2022-10-30T01:16:45.602Z,7.00
2022-10-30T01:19:29.302Z,7.60
2022-10-30T01:22:22.107Z,7.47
2022-10-30T01:25:12.008Z,6.05
2022-10-30T01:27:58.416Z,6.60
2022-10-30T01:30:52.860Z,7.03
2022-10-30T01:33:51.520Z,7.47
2022-10-30T01:36:27.897Z,6.50
2022-10-30T01:39:02.503Z,6.18
2022-10-30T01:41:30.446Z,6.97
2022-10-30T01:44:07.267Z,6.13
2022-10-30T01:46:52.766Z,6.45
2022-10-30T01:49:51.415Z,6.70
2022-10-30T01:52:35.275Z,6.15
2022-10-30T01:55:14.863Z,6.70
2022-10-30T01:57:55.619Z,6.28
2022-10-30T02:00:24.121Z,6.68
2022-10-30T02:02:52.268Z,6.78
2022-10-30T02:05:36.388Z,7.28
2022-10-30T02:08:06.333Z,6.43
2022-10-30T02:10:37.889Z,6.25
2022-10-30T02:13:05.670Z,6.53
2022-10-30T02:15:35.063Z,6.05
2022-10-30T02:18:03.320Z,6.60
2022-10-30T02:20:32.773Z,6.45
2022-10-30T02:23:01.082Z,6.70
2022-10-30T02:25:34.630Z,6.13
2022-10-30T02:28:02.380Z,6.93
2022-10-30T02:30:32.302Z,6.25
2022-10-30T02:33:02.576Z,6.38
2022-10-30T02:35:32.051Z,6.97
2022-10-30T02:38:00.312Z,6.93
2022-10-30T02:40:28.663Z,7.47
2022-10-30T02:42:57.713Z,7.40
2022-10-30T02:45:25.768Z,7.63
2022-10-30T02:47:53.531Z,7.18
2022-10-30T02:50:21.428Z,7.50
2022-10-30T02:52:50.493Z,7.13
2022-10-30T02:55:18.841Z,6.80
2022-10-30T02:57:48.094Z,6.93
2022-10-30T03:00:16.239Z,6.90
2022-10-30T03:02:44.067Z,7.35
2022-10-30T03:05:11.947Z,7.65
2022-10-30T03:07:39.822Z,7.78
2022-10-30T03:10:09.819Z,7.63
2022-10-30T03:12:37.554Z,7.95
2022-10-30T03:15:06.705Z,7.18
2022-10-30T03:17:34.689Z,7.15
2022-10-30T03:20:02.517Z,7.63
2022-10-30T03:22:30.335Z,6.90
2022-10-30T03:24:58.194Z,8.00
2022-10-30T03:27:27.274Z,7.18
2022-10-30T03:29:54.956Z,7.78
2022-10-30T03:32:26.170Z,7.22
2022-10-30T03:34:55.317Z,7.28
2022-10-30T03:37:23.143Z,8.13
2022-10-30T03:39:50.991Z,7.20
2022-10-30T03:42:22.000Z,7.65
2022-10-30T03:44:53.631Z,7.30
2022-10-30T03:47:21.481Z,7.05
2022-10-30T03:49:49.305Z,7.50
2022-10-30T03:52:20.609Z,7.70
2022-10-30T03:54:50.176Z,7.30
2022-10-30T03:57:19.390Z,7.60
2022-10-30T04:00:08.175Z,7.20
2022-10-30T04:02:46.441Z,7.68
2022-10-30T04:05:18.555Z,7.25
2022-10-30T04:07:47.945Z,7.60
2022-10-30T04:10:20.981Z,7.72
2022-10-30T04:12:52.933Z,7.43
2022-10-30T04:15:22.077Z,7.93
2022-10-30T04:17:52.184Z,7.80
2022-10-30T04:20:23.703Z,8.23
2022-10-30T04:22:57.168Z,8.75
2022-10-30T04:25:25.772Z,8.27
2022-10-30T04:27:53.828Z,7.25
2022-10-30T04:30:27.475Z,7.07
2022-10-30T04:32:57.534Z,7.82
2022-10-30T04:35:29.055Z,7.18
2022-10-30T04:37:59.333Z,7.70
2022-10-30T04:40:29.836Z,7.65
2022-10-30T04:43:04.118Z,7.68
2022-10-30T04:45:33.948Z,7.82
2022-10-30T04:48:05.631Z,7.60
2022-10-30T04:50:34.900Z,8.20
2022-10-30T04:53:07.476Z,8.27
2022-10-30T04:55:35.639Z,7.78
2022-10-30T04:58:04.717Z,8.23
2022-10-30T05:00:38.424Z,7.68
2022-10-30T05:03:19.711Z,8.88
2022-10-30T05:05:48.833Z,7.68
2022-10-30T05:08:17.000Z,8.48
2022-10-30T05:10:46.191Z,8.35
2022-10-30T05:13:15.867Z,8.05
2022-10-30T05:15:45.489Z,7.78
2022-10-30T05:18:14.507Z,8.27
2022-10-30T05:20:42.569Z,7.95
2022-10-30T05:23:11.635Z,8.75
2022-10-30T05:25:39.632Z,8.55
2022-10-30T05:28:10.687Z,8.57
2022-10-30T05:30:53.391Z,8.70
2022-10-30T05:33:47.606Z,7.90
2022-10-30T05:36:15.561Z,7.97
2022-10-30T05:38:45.680Z,9.23
2022-10-30T05:41:21.670Z,7.80
2022-10-30T05:43:49.513Z,8.13
2022-10-30T05:46:18.798Z,8.63
2022-10-30T05:48:47.893Z,8.07
2022-10-30T05:51:16.026Z,8.43
2022-10-30T05:53:51.019Z,8.20
2022-10-30T05:56:22.822Z,8.03
2022-10-30T05:58:51.063Z,8.63
2022-10-30T06:01:21.053Z,8.50
2022-10-30T06:03:52.781Z,8.47
2022-10-30T06:06:21.741Z,9.00
2022-10-30T06:08:50.780Z,8.50
2022-10-30T06:11:45.699Z,8.73
2022-10-30T06:14:14.630Z,8.13
2022-10-30T06:16:49.236Z,8.20
2022-10-30T06:19:25.615Z,8.77
2022-10-30T06:21:56.241Z,8.77
2022-10-30T06:24:50.112Z,8.47
2022-10-30T06:27:30.688Z,7.83
2022-10-30T06:29:58.538Z,8.33
2022-10-30T06:32:28.692Z,8.00
2022-10-30T06:34:56.838Z,8.60
2022-10-30T06:37:25.970Z,8.20
2022-10-30T06:39:54.123Z,8.17
2022-10-30T06:42:43.712Z,8.03
2022-10-30T06:45:25.075Z,8.70
2022-10-30T06:47:55.607Z,10.03
2022-10-30T06:50:24.403Z,8.70
2022-10-30T06:52:54.821Z,11.40
2022-10-30T06:55:22.807Z,9.83
2022-10-30T06:58:11.123Z,12.90
2022-10-30T07:01:01.750Z,11.10
2022-10-30T07:03:43.852Z,12.40
2022-10-30T07:06:11.815Z,10.80
2022-10-30T07:08:40.906Z,10.80
2022-10-30T07:11:10.460Z,9.60
2022-10-30T07:13:59.073Z,8.88
2022-10-30T07:17:00.921Z,10.17
2022-10-30T07:19:32.373Z,9.38
2022-10-30T07:22:01.847Z,9.30
2022-10-30T07:24:30.799Z,8.53
2022-10-30T07:27:19.062Z,8.90
2022-10-30T07:30:07.800Z,9.30
2022-10-30T07:32:57.028Z,9.00
2022-10-30T07:38:47.793Z,8.50
2022-10-30T07:41:35.953Z,8.93
2022-10-30T07:44:35.965Z,8.05
2022-10-30T07:47:41.212Z,8.07
2022-10-30T07:50:23.404Z,8.55
2022-10-30T07:52:52.600Z,7.93
2022-10-30T07:55:25.545Z,7.95
2022-10-30T07:57:53.389Z,7.97
2022-10-30T08:00:41.307Z,7.18
2022-10-30T08:03:22.391Z,7.50
2022-10-30T08:06:01.141Z,7.50
2022-10-30T08:08:36.713Z,7.57
2022-10-30T08:11:17.265Z,6.97
2022-10-30T08:13:45.361Z,7.60
2022-10-30T08:16:13.263Z,7.80
2022-10-30T08:18:43.487Z,7.57
2022-10-30T08:21:14.109Z,7.32
2022-10-30T08:24:01.743Z,7.68
2022-10-30T08:26:33.043Z,6.97
2022-10-30T08:29:00.988Z,7.60
2022-10-30T08:31:32.414Z,7.70
2022-10-30T08:34:05.451Z,7.93
2022-10-30T08:36:33.398Z,8.45
2022-10-30T08:39:04.009Z,7.95
2022-10-30T08:41:59.739Z,7.30
2022-10-30T08:47:17.739Z,8.02
2022-10-30T08:49:46.940Z,8.25
2022-10-30T08:52:18.222Z,7.93
2022-10-30T08:54:52.544Z,7.93
2022-10-30T08:57:20.719Z,7.90
2022-10-30T08:59:49.062Z,7.50
2022-10-30T09:02:40.661Z,8.07
2022-10-30T09:05:41.041Z,7.68
2022-10-30T09:08:19.071Z,7.68
2022-10-30T09:11:07.333Z,7.97
2022-10-30T09:13:35.688Z,8.00
2022-10-30T09:16:06.453Z,7.70
2022-10-30T09:18:38.735Z,7.45
2022-10-30T09:21:06.894Z,8.10
2022-10-30T09:23:44.180Z,7.80
2022-10-30T09:26:31.861Z,7.97
2022-10-30T09:29:21.941Z,7.95
2022-10-30T09:31:52.794Z,7.93
2022-10-30T09:34:21.583Z,8.63
2022-10-30T09:36:57.173Z,8.85
2022-10-30T09:39:25.642Z,7.43
2022-10-30T09:42:36.378Z,7.50
2022-10-30T09:45:47.606Z,7.47
2022-10-30T09:48:50.586Z,6.50
2022-10-30T09:52:08.044Z,7.35
2022-10-30T09:54:56.686Z,6.32
2022-10-30T09:57:39.605Z,6.30
2022-10-30T10:00:12.960Z,6.57
2022-10-30T10:03:04.510Z,5.97
2022-10-30T10:05:48.678Z,6.40
2022-10-30T10:08:41.915Z,6.80
2022-10-30T10:11:36.595Z,6.70
2022-10-30T10:14:15.499Z,6.78
2022-10-30T10:16:52.445Z,6.90
2022-10-30T10:19:22.663Z,6.35
2022-10-30T10:21:58.337Z,7.40
2022-10-30T10:24:32.865Z,6.38
2022-10-30T10:27:13.095Z,7.20
2022-10-30T10:30:01.031Z,6.57
2022-10-30T10:33:12.345Z,6.80
2022-10-30T10:36:13.017Z,6.35
2022-10-30T10:39:23.991Z,7.13
2022-10-30T10:42:07.084Z,7.25
2022-10-30T10:44:58.652Z,6.53
2022-10-30T10:47:52.276Z,7.10
2022-10-30T10:50:26.329Z,6.13
2022-10-30T10:53:01.494Z,6.88
2022-10-30T10:55:36.260Z,6.20
2022-10-30T10:58:16.037Z,6.32
2022-10-30T11:00:47.968Z,6.38
2022-10-30T11:03:23.052Z,6.40
2022-10-30T11:05:57.613Z,6.18
2022-10-30T11:08:28.789Z,6.18
2022-10-30T11:10:59.399Z,6.45
2022-10-30T11:13:31.998Z,6.05
2022-10-30T11:16:15.702Z,6.88
2022-10-30T11:18:47.342Z,6.78
2022-10-30T11:21:21.501Z,6.80
2022-10-30T11:23:51.114Z,6.20
2022-10-30T11:26:35.246Z,6.45
2022-10-30T11:29:14.690Z,6.80
2022-10-30T11:31:47.087Z,7.10
2022-10-30T11:34:31.116Z,6.65
2022-10-30T11:36:59.213Z,7.05
2022-10-30T11:39:31.942Z,6.28
2022-10-30T11:42:06.302Z,6.85
2022-10-30T11:44:38.473Z,6.50
2022-10-30T11:47:12.485Z,6.30
2022-10-30T11:49:46.998Z,6.50
2022-10-30T11:52:19.695Z,6.45
2022-10-30T11:54:54.457Z,5.80
2022-10-30T11:57:33.961Z,6.93
2022-10-30T12:00:08.163Z,6.80
2022-10-30T12:02:48.324Z,7.10
2022-10-30T12:05:39.117Z,6.75
2022-10-30T12:08:22.032Z,6.82
2022-10-30T12:11:03.037Z,6.70
2022-10-30T12:13:39.510Z,6.38
2022-10-30T12:16:16.662Z,6.32
2022-10-30T12:18:59.308Z,6.28
2022-10-30T12:21:31.590Z,6.05
2022-10-30T12:24:07.845Z,6.88
2022-10-30T12:26:39.296Z,6.28
2022-10-30T12:29:15.016Z,6.05
2022-10-30T12:31:53.854Z,6.30
2022-10-30T12:34:38.956Z,5.88
2022-10-30T12:37:17.264Z,5.63
2022-10-30T12:39:59.032Z,5.63
2022-10-30T12:42:28.014Z,6.63
2022-10-30T12:45:12.196Z,6.35
2022-10-30T12:47:48.345Z,5.55
2022-10-30T12:50:25.142Z,5.90
2022-10-30T12:53:02.459Z,5.95
2022-10-30T12:55:37.238Z,5.63
2022-10-30T12:58:21.626Z,5.80
2022-10-30T13:00:58.501Z,5.78
2022-10-30T13:03:36.173Z,6.15
2022-10-30T13:06:16.523Z,6.28
2022-10-30T13:09:03.319Z,6.35
2022-10-30T13:11:44.749Z,6.18
2022-10-30T13:14:17.401Z,5.60
2022-10-30T13:16:45.773Z,6.43
2022-10-30T13:19:15.456Z,5.15
2022-10-30T13:21:59.902Z,5.68
2022-10-30T13:24:55.834Z,5.72
2022-10-30T13:27:41.202Z,5.55
2022-10-30T13:30:15.584Z,5.63
2022-10-30T13:33:05.525Z,5.80
2022-10-30T13:35:45.194Z,5.65
2022-10-30T13:38:40.206Z,5.30
2022-10-30T13:41:20.590Z,5.30
2022-10-30T13:44:03.621Z,5.57
2022-10-30T13:47:03.742Z,5.60
2022-10-30T13:49:55.272Z,5.60
2022-10-30T13:55:23.975Z,5.50
2022-10-30T13:58:03.872Z,5.32
2022-10-30T14:00:53.494Z,5.13
2022-10-30T14:03:43.520Z,5.20
2022-10-30T14:06:26.041Z,5.22
2022-10-30T14:09:05.987Z,5.20
2022-10-30T14:11:35.268Z,5.47
2022-10-30T14:14:23.997Z,5.20
2022-10-30T14:17:12.767Z,5.05
2022-10-30T14:20:21.897Z,4.75
2022-10-30T14:23:13.428Z,5.50
2022-10-30T14:25:42.971Z,5.32
2022-10-30T14:28:21.570Z,5.65
2022-10-30T14:31:02.754Z,4.95
2022-10-30T14:33:50.033Z,5.78
2022-10-30T14:36:22.754Z,5.03
2022-10-30T14:39:21.249Z,5.50
2022-10-30T14:42:03.045Z,5.20
2022-10-30T14:44:59.596Z,5.00
2022-10-30T14:47:48.591Z,5.35
2022-10-30T14:50:46.752Z,4.90
2022-10-30T14:53:40.353Z,5.20
2022-10-30T14:56:25.401Z,5.30
2022-10-30T14:59:44.371Z,5.40
2022-10-30T15:03:04.499Z,5.82
2022-10-30T15:05:47.409Z,5.68
2022-10-30T15:08:36.843Z,6.22
2022-10-30T15:11:35.601Z,6.10
2022-10-30T15:14:21.076Z,5.50
2022-10-30T15:16:54.790Z,5.97
2022-10-30T15:19:24.891Z,5.18
2022-10-30T15:21:56.733Z,6.00
2022-10-30T15:24:32.363Z,5.63
2022-10-30T15:27:03.324Z,6.07
2022-10-30T15:29:36.661Z,5.28
2022-10-30T15:32:17.416Z,5.28
2022-10-30T15:34:55.944Z,5.68
2022-10-30T15:37:23.993Z,5.80
2022-10-30T15:40:11.240Z,5.65
2022-10-30T15:42:39.895Z,5.28
2022-10-30T15:45:18.424Z,5.30
2022-10-30T15:47:58.105Z,5.22
2022-10-30T15:50:27.485Z,5.90
2022-10-30T15:52:59.164Z,5.55
2022-10-30T15:55:32.172Z,5.63
2022-10-30T15:58:05.221Z,5.55
2022-10-30T16:00:36.881Z,5.75
2022-10-30T16:03:16.558Z,5.25
2022-10-30T16:05:44.821Z,5.82
2022-10-30T16:08:19.547Z,5.28
2022-10-30T16:10:49.657Z,5.88
2022-10-30T16:13:21.832Z,5.88
2022-10-30T16:15:50.217Z,6.13
2022-10-30T16:18:24.232Z,5.97
2022-10-30T16:20:55.354Z,6.15
2022-10-30T16:23:24.731Z,6.68
2022-10-30T16:25:56.417Z,6.47
2022-10-30T16:28:29.893Z,7.05
2022-10-30T16:31:01.732Z,6.40
2022-10-30T16:33:35.281Z,6.10
2022-10-30T16:36:07.243Z,6.57
2022-10-30T16:38:38.215Z,6.60
2022-10-30T16:41:07.809Z,7.90
2022-10-30T16:43:36.809Z,8.45
2022-10-30T16:46:36.020Z,8.00
2022-10-30T16:49:15.043Z,8.07
2022-10-30T16:51:43.606Z,8.82
2022-10-30T16:54:26.017Z,8.98
2022-10-30T16:56:58.175Z,9.00
2022-10-30T16:59:35.696Z,9.27
2022-10-30T17:02:17.146Z,10.43
2022-10-30T17:04:52.493Z,10.23
2022-10-30T17:07:26.616Z,9.45
2022-10-30T17:09:57.389Z,9.48
2022-10-30T17:12:27.493Z,8.85
2022-10-30T17:15:04.349Z,9.13
2022-10-30T17:17:34.957Z,9.52
2022-10-30T17:22:47.672Z,10.25
2022-10-30T17:25:28.207Z,9.13
2022-10-30T17:27:57.315Z,9.38
2022-10-30T17:30:39.486Z,9.43
2022-10-30T17:33:35.224Z,9.82
2022-10-30T17:36:06.782Z,10.48
2022-10-30T17:38:34.949Z,17.85
2022-10-30T17:41:04.776Z,10.20
2022-10-30T17:43:48.911Z,12.50
2022-10-30T17:46:20.041Z,13.93
2022-10-30T17:48:48.659Z,12.38
2022-10-30T17:51:19.394Z,12.80
2022-10-30T17:53:48.407Z,13.05
2022-10-30T17:56:21.464Z,11.93
2022-10-30T17:58:49.367Z,13.05
2022-10-30T18:01:23.642Z,13.00
2022-10-30T18:03:57.305Z,12.40
2022-10-30T18:06:28.805Z,11.35
2022-10-30T18:08:56.681Z,10.85
2022-10-30T18:11:29.058Z,10.60
2022-10-30T18:13:57.957Z,9.95
2022-10-30T18:16:26.307Z,10.10
2022-10-30T18:18:59.586Z,10.27
2022-10-30T18:21:29.223Z,9.35
2022-10-30T18:23:57.564Z,8.15
2022-10-30T18:26:27.952Z,8.50
2022-10-30T18:28:55.958Z,8.10
2022-10-30T18:31:24.804Z,8.57
2022-10-30T18:33:52.766Z,7.65
2022-10-30T18:36:24.111Z,7.90
2022-10-30T18:38:56.106Z,8.35
2022-10-30T18:41:33.289Z,8.63
2022-10-30T18:44:01.872Z,8.43
2022-10-30T18:46:32.758Z,9.55
2022-10-30T18:49:00.865Z,11.52
2022-10-30T18:51:28.835Z,9.70
2022-10-30T18:53:58.033Z,10.38
2022-10-30T18:56:27.879Z,12.77
2022-10-30T18:59:00.624Z,10.50
2022-10-30T19:01:34.338Z,9.88
2022-10-30T19:04:04.184Z,9.98
2022-10-30T19:06:37.546Z,9.35
2022-10-30T19:09:08.667Z,9.52
2022-10-30T19:11:39.430Z,9.43
2022-10-30T19:14:13.556Z,9.27
2022-10-30T19:16:42.183Z,9.30
2022-10-30T19:19:14.811Z,9.55
2022-10-30T19:21:42.691Z,9.30
2022-10-30T19:24:15.624Z,11.65
2022-10-30T19:26:43.596Z,9.90
2022-10-30T19:29:12.034Z,12.00
2022-10-30T19:31:40.219Z,10.45
2022-10-30T19:34:08.021Z,11.50
2022-10-30T19:36:37.675Z,10.43
2022-10-30T19:39:13.947Z,10.55
2022-10-30T19:41:41.810Z,10.00
2022-10-30T19:44:10.647Z,10.80
2022-10-30T19:46:38.654Z,10.77
2022-10-30T19:49:17.036Z,10.80
2022-10-30T19:51:44.864Z,10.73
2022-10-30T19:54:14.542Z,11.23
2022-10-30T19:56:43.813Z,11.23
2022-10-30T19:59:15.174Z,11.30
2022-10-30T20:01:44.541Z,12.07
2022-10-30T20:04:12.886Z,12.55
2022-10-30T20:06:40.729Z,12.25
2022-10-30T20:09:11.026Z,11.57
2022-10-30T20:11:40.203Z,11.45
2022-10-30T20:14:07.978Z,11.48
2022-10-30T20:16:36.202Z,11.75
2022-10-30T20:19:26.760Z,12.32
2022-10-30T20:21:55.352Z,11.70
2022-10-30T20:24:26.017Z,12.70
2022-10-30T20:26:57.101Z,12.95
2022-10-30T20:29:25.377Z,12.70
2022-10-30T20:31:53.296Z,13.40
2022-10-30T20:34:22.712Z,12.88
2022-10-30T20:36:50.684Z,14.00
2022-10-30T20:39:18.668Z,14.80
2022-10-30T20:41:46.535Z,14.50
2022-10-30T20:44:15.645Z,13.77
2022-10-30T20:46:43.419Z,14.77
2022-10-30T20:49:17.558Z,15.18
2022-10-30T20:51:47.627Z,15.50
2022-10-30T20:54:15.689Z,16.38
2022-10-30T20:56:44.143Z,16.30
2022-10-30T20:59:11.887Z,16.13
2022-10-30T21:01:41.090Z,15.93
2022-10-30T21:04:09.020Z,17.30
2022-10-30T21:06:36.839Z,17.75
2022-10-30T21:09:05.091Z,17.63
2022-10-30T21:11:33.068Z,18.00
2022-10-30T21:14:00.865Z,17.30
2022-10-30T21:16:28.622Z,18.17
2022-10-30T21:18:57.722Z,18.13
2022-10-30T21:21:26.104Z,18.15
2022-10-30T21:23:54.673Z,17.95
2022-10-30T21:26:24.488Z,18.90
2022-10-30T21:28:52.522Z,18.90
2022-10-30T21:31:20.332Z,19.35
2022-10-30T21:33:48.184Z,19.58
2022-10-30T21:36:22.343Z,20.80
2022-10-30T21:38:50.324Z,20.15
2022-10-30T21:41:22.200Z,19.98
2022-10-30T21:43:57.105Z,21.23
2022-10-30T21:46:28.171Z,20.55
2022-10-30T21:48:56.279Z,20.88
2022-10-30T21:51:27.789Z,20.40
2022-10-30T21:53:56.898Z,21.13
2022-10-30T21:56:28.005Z,21.17
2022-10-30T21:58:59.362Z,20.40
2022-10-30T22:01:31.424Z,22.70
2022-10-30T22:04:01.125Z,22.25
2022-10-30T22:06:31.624Z,21.48
2022-10-30T22:09:00.176Z,20.63
2022-10-30T22:11:28.739Z,21.15
2022-10-30T22:13:59.486Z,21.23
2022-10-30T22:16:30.285Z,23.95
2022-10-30T22:18:58.614Z,20.85
2022-10-30T22:21:27.521Z,21.63
2022-10-30T22:23:59.240Z,22.33
2022-10-30T22:26:29.182Z,22.27
2022-10-30T22:29:00.166Z,22.38
2022-10-30T22:31:30.106Z,22.45
2022-10-30T22:34:00.251Z,22.65
2022-10-30T22:36:30.906Z,22.90
2022-10-30T22:39:03.006Z,23.67
2022-10-30T22:41:34.776Z,23.08
2022-10-30T22:44:12.679Z,23.10
2022-10-30T22:46:41.102Z,23.30
2022-10-30T22:49:09.203Z,23.48
2022-10-30T22:51:39.438Z,24.08
2022-10-30T22:54:14.405Z,23.50
2022-10-30T22:56:42.690Z,23.88
2022-10-30T22:59:13.031Z,21.92
2022-10-30T23:01:42.037Z,23.75
2022-10-30T23:04:12.356Z,23.48
2022-10-30T23:06:40.210Z,22.35
2022-10-30T23:09:17.923Z,22.95
2022-10-30T23:11:45.816Z,21.75
2022-10-30T23:14:15.261Z,22.63
2022-10-30T23:16:43.147Z,21.98
2022-10-30T23:19:11.585Z,22.77
2022-10-30T23:21:39.461Z,23.10
2022-10-30T23:24:09.782Z,22.20
2022-10-30T23:26:37.605Z,22.83
2022-10-30T23:29:05.731Z,21.38
2022-10-30T23:31:36.735Z,22.30
2022-10-30T23:34:08.598Z,21.00
2022-10-30T23:36:36.712Z,20.75
2022-10-30T23:39:08.597Z,20.67
2022-10-30T23:41:38.930Z,19.40
2022-10-30T23:44:11.136Z,20.33
2022-10-30T23:46:39.209Z,18.65
2022-10-30T23:49:07.078Z,18.98
2022-10-30T23:51:35.117Z,18.27
2022-10-30T23:54:03.978Z,18.25
2022-10-30T23:56:32.065Z,18.55
2022-10-30T23:59:01.244Z,18.35
